This is the latest recevied weather packets stored in our database for station/object WX2NJ-13. If no packets are shown the sender has not sent any weather packets the latest 1 day(s).
| Time | Temp. | Humidity | Pressure | Rain* | Wind** | Luminosity | Snow |
|---|---|---|---|---|---|---|---|
| 1778039354 | 17.78° C | 70% | 1012.5 hPa | 0 mm | 1.79 m/s, 166° | - | - |
| 1778039056 | 17.78° C | 70% | 1012.5 hPa | 0 mm | 0.89 m/s, 163° | - | - |
| 1778038754 | 17.78° C | 70% | 1012.6 hPa | 0 mm | 1.34 m/s, 104° | - | - |
| 1778038456 | 17.78° C | 70% | 1012.6 hPa | 0 mm | 1.79 m/s, 110° | - | - |
| 1778037856 | 18.33° C | 69% | 1012.4 hPa | 0 mm | 1.79 m/s, 181° | - | - |
| 1778037557 | 18.33° C | 69% | 1012.4 hPa | 0 mm | 1.79 m/s, 205° | - | - |
| 1778036659 | 18.33° C | 68% | 1012.5 hPa | 0 mm | 1.79 m/s, 138° | - | - |
| 1778036360 | 18.33° C | 68% | 1012.5 hPa | 0 mm | 1.34 m/s, 165° | - | - |
| 1778036059 | 18.33° C | 68% | 1012.5 hPa | 0 mm | 1.34 m/s, 174° | - | - |
| 1778035760 | 18.33° C | 67% | 1012.5 hPa | 0 mm | 1.79 m/s, 187° | - | - |
| 1778035462 | 18.33° C | 67% | 1012.6 hPa | 0 mm | 2.24 m/s, 167° | - | - |
| 1778035160 | 18.33° C | 67% | 1012.6 hPa | 0 mm | 2.24 m/s, 163° | - | - |
| 1778034862 | 18.33° C | 67% | 1012.7 hPa | 0 mm | 2.24 m/s, 165° | - | - |
| 1778034563 | 18.89° C | 66% | 1012.7 hPa | 0 mm | 2.24 m/s, 173° | - | - |
| 1778034262 | 18.89° C | 66% | 1012.6 hPa | 0 mm | 1.79 m/s, 257° | - | - |
| 1778033963 | 18.89° C | 66% | 1012.7 hPa | 0 mm | 1.34 m/s, 188° | - | - |
| 1778033665 | 18.89° C | 66% | 1012.7 hPa | 0 mm | 1.79 m/s, 163° | - | - |
| 1778033363 | 18.89° C | 66% | 1012.8 hPa | 0 mm | 2.24 m/s, 242° | - | - |
| 1778033065 | 18.89° C | 66% | 1012.7 hPa | 0 mm | 2.24 m/s, 249° | - | - |
| 1778032766 | 18.89° C | 66% | 1012.7 hPa | 0 mm | 2.24 m/s, 228° | - | - |
| 1778032465 | 18.89° C | 66% | 1012.7 hPa | 0 mm | 2.24 m/s, 207° | - | - |
| 1778032166 | 18.89° C | 66% | 1012.6 hPa | 0 mm | 1.34 m/s, 203° | - | - |
| 1778031867 | 18.89° C | 66% | 1012.6 hPa | 0 mm | 1.79 m/s, 232° | - | - |
| 1778031566 | 18.89° C | 66% | 1012.6 hPa | 0 mm | 1.79 m/s, 191° | - | - |
| 1778031267 | 18.89° C | 65% | 1012.5 hPa | 0 mm | 1.79 m/s, 194° | - | - |
* Rain latest hour (hover to see other rain measurements)
** Current wind speed in m/s (hover to see current wind gust speed)